Onward, Indiana
Current Conditions -  °F | °C
As of 2:24 PM on Thursday 18 Dec 2014 (Local Time) from KGUS Reporting Station
Light Snow Light Snow  
Wind Chill: 20°   Ceiling: 1600
Heat Index: 27°   Visibility: 10mi
Dew Point: 23°   Wind: 6mph
Humidity: 86%   Direction: 280°W
Pressure: 30.22"   Gusts: NA
Location:  40.69°N, 86.19°W
Report Text: KGUS 181924Z 28005KT 10SM -SN OVC016 M03/M05 A3022 RMK AO2A
Loading
Personal Weather Stations






























Interactive Weather Map New forecast layout! Learn more

10-Day Weather Forecast

Advertisements
Track Severe Weather on mobile